Time;durP1;ratioP1;P1;durP2;ratioP2;P2;SDS_P1;SDS_P2;PMS_P1;PMS_P2;Temp;Humidity;BMP_temperature;BMP_pressure;BME280_temperature;BME280_humidity;BME280_pressure;Samples;Min_cycle;Max_cycle;Signal;HPM_P1;HPM_P2
2023/04/10 00:00:10;;;;;;;19.80;15.00;;;;;;;6.32;85.86;101338.98;103677;280;38382;-69
2023/04/10 00:03:06;;;;;;;18.10;14.40;;;;;;;6.30;86.12;101340.56;103521;270;39611;-71
2023/04/10 00:05:40;;;;;;;17.30;14.30;;;;;;;6.28;85.93;101339.36;103711;280;38774;-72
2023/04/10 00:08:14;;;;;;;16.90;13.30;;;;;;;6.25;85.84;101343.88;103698;280;38792;-72
2023/04/10 00:10:48;;;;;;;15.60;12.90;;;;;;;6.21;86.11;101347.17;103621;280;175532;-74
2023/04/10 00:13:22;;;;;;;16.40;13.10;;;;;;;6.18;86.07;101345.63;103671;280;40163;-74
2023/04/10 00:15:56;;;;;;;17.60;12.90;;;;;;;6.15;85.91;101346.17;103701;280;38282;-72
2023/04/10 00:18:30;;;;;;;21.30;14.90;;;;;;;6.12;86.15;101344.98;103671;280;38476;-70
2023/04/10 00:21:06;;;;;;;21.50;14.60;;;;;;;6.10;86.15;101339.77;103733;279;38844;-69
2023/04/10 00:23:40;;;;;;;29.20;15.50;;;;;;;6.09;85.98;101340.83;103707;280;39646;-69
2023/04/10 00:26:14;;;;;;;19.50;15.20;;;;;;;6.03;85.92;101341.37;103698;278;38468;-70
2023/04/10 00:28:48;;;;;;;19.30;14.20;;;;;;;5.92;85.79;101340.01;103572;280;189327;-68
2023/04/10 00:31:22;;;;;;;17.10;13.60;;;;;;;5.86;86.01;101343.98;103655;279;38563;-72
2023/04/10 00:33:56;;;;;;;20.10;13.60;;;;;;;5.83;86.28;101343.48;103666;280;39299;-74
2023/04/10 00:36:31;;;;;;;16.30;13.50;;;;;;;5.82;86.35;101346.08;103701;279;38583;-71
2023/04/10 00:39:06;;;;;;;14.10;12.00;;;;;;;5.80;86.46;101346.95;103680;280;38292;-69
2023/04/10 00:41:40;;;;;;;17.00;12.80;;;;;;;5.79;86.45;101347.13;103706;280;39204;-72
2023/04/10 00:44:14;;;;;;;19.50;14.50;;;;;;;5.78;86.39;101348.00;103695;280;38714;-72
2023/04/10 00:46:48;;;;;;;17.00;14.10;;;;;;;5.76;86.43;101343.33;103707;280;38278;-74
2023/04/10 00:49:22;;;;;;;17.60;14.50;;;;;;;5.70;86.19;101340.23;103724;280;38805;-74
2023/04/10 00:51:56;;;;;;;18.00;14.10;;;;;;;5.67;86.20;101340.05;103689;280;38412;-71
2023/04/10 00:54:31;;;;;;;22.10;17.10;;;;;;;5.63;86.32;101341.63;103678;280;38279;-71
2023/04/10 00:57:06;;;;;;;15.90;13.40;;;;;;;5.58;86.34;101340.94;103706;280;39027;-69
2023/04/10 00:59:39;;;;;;;17.60;14.80;;;;;;;5.57;86.53;101337.14;103697;280;38622;-70
2023/04/10 01:02:13;;;;;;;21.30;16.90;;;;;;;5.58;86.70;101336.27;103733;280;39903;-69
2023/04/10 01:04:47;;;;;;;18.70;15.90;;;;;;;5.57;86.82;101335.23;103675;280;40095;-69
2023/04/10 01:07:30;;;;;;;19.20;16.60;;;;;;;5.53;86.54;101334.55;103673;280;38813;-74
2023/04/10 01:10:10;;;;;;;18.90;15.70;;;;;;;5.48;86.58;101334.89;103636;280;38850;-73
2023/04/10 01:12:56;;;;;;;20.40;15.70;;;;;;;5.46;86.65;101339.58;103675;280;38228;-72
2023/04/10 01:15:30;;;;;;;23.00;17.30;;;;;;;5.40;86.61;101339.07;103714;279;39489;-74
2023/04/10 01:18:07;;;;;;;21.90;15.60;;;;;;;5.38;86.55;101344.27;103588;280;175606;-72
2023/04/10 01:20:41;;;;;;;23.40;16.90;;;;;;;5.36;86.51;101343.40;103732;280;38373;-72
2023/04/10 01:23:45;;;;;;;20.80;15.70;;;;;;;5.33;86.69;101345.30;103657;280;39228;-72
2023/04/10 01:26:21;;;;;;;22.10;17.20;;;;;;;5.32;86.78;101346.87;103716;280;38676;-72
2023/04/10 01:29:00;;;;;;;21.20;16.70;;;;;;;5.31;86.99;101349.80;103683;280;38961;-73
2023/04/10 01:31:41;;;;;;;21.30;16.20;;;;;;;5.31;86.93;101348.25;103684;280;38234;-71
2023/04/10 01:34:20;;;;;;;22.90;16.80;;;;;;;5.27;86.63;101351.89;103308;280;542922;-70
2023/04/10 01:36:56;;;;;;;26.60;17.90;;;;;;;5.23;86.73;101353.44;103540;279;40446;-69
2023/04/10 01:39:31;;;;;;;22.70;17.00;;;;;;;5.21;86.97;101351.19;103689;280;39956;-69
2023/04/10 01:42:05;;;;;;;25.80;17.30;;;;;;;5.17;86.88;101355.16;103747;280;40425;-69
2023/04/10 01:44:41;;;;;;;22.50;16.30;;;;;;;5.15;86.99;101352.75;103674;280;39651;-69
2023/04/10 01:47:17;;;;;;;21.80;15.70;;;;;;;5.14;86.89;101350.16;103091;280;913250;-73
2023/04/10 01:49:51;;;;;;;22.30;16.80;;;;;;;5.13;86.94;101354.14;103692;280;39689;-73
2023/04/10 01:52:25;;;;;;;24.00;17.00;;;;;;;5.14;87.05;101351.89;103713;280;38406;-68
2023/04/10 01:55:00;;;;;;;23.20;16.60;;;;;;;5.12;87.07;101353.27;103668;280;38985;-69
2023/04/10 01:57:37;;;;;;;23.90;17.00;;;;;;;5.09;87.05;101355.52;103714;280;39007;-71
2023/04/10 02:00:22;;;;;;;26.40;18.40;;;;;;;5.06;87.00;101358.46;103674;280;38248;-69
2023/04/10 02:02:58;;;;;;;27.00;17.80;;;;;;;5.05;86.87;101358.97;103692;279;38269;-73
2023/04/10 02:05:36;;;;;;;25.10;17.90;;;;;;;5.03;86.96;101358.46;103705;280;38382;-72
2023/04/10 02:08:15;;;;;;;29.30;19.10;;;;;;;5.02;87.00;101358.11;103738;280;38693;-72
2023/04/10 02:10:54;;;;;;;25.20;19.00;;;;;;;4.99;87.18;101354.12;103710;278;38233;-72
2023/04/10 02:13:29;;;;;;;22.30;16.30;;;;;;;4.95;87.00;101356.02;103567;280;39395;-72
2023/04/10 02:16:04;;;;;;;20.30;15.10;;;;;;;4.91;86.86;101352.91;103685;280;38796;-74
2023/04/10 02:18:39;;;;;;;23.30;16.60;;;;;;;4.90;87.08;101358.27;103719;280;38648;-72
2023/04/10 02:21:13;;;;;;;22.60;16.00;;;;;;;4.91;87.16;101357.05;103737;280;38550;-68
2023/04/10 02:23:48;;;;;;;21.90;17.30;;;;;;;4.90;87.18;101355.34;103678;280;39337;-69
2023/04/10 02:26:22;;;;;;;23.60;16.80;;;;;;;4.89;87.09;101356.55;103715;280;38758;-72
2023/04/10 02:28:56;;;;;;;20.30;16.40;;;;;;;4.82;86.90;101356.37;103659;280;38438;-75
2023/04/10 02:31:30;;;;;;;26.80;17.50;;;;;;;4.80;87.02;101360.84;103706;280;39752;-71
2023/04/10 02:34:04;;;;;;;28.00;18.30;;;;;;;4.78;87.24;101362.73;103718;280;38362;-70
2023/04/10 02:36:40;;;;;;;32.00;20.80;;;;;;;4.78;87.43;101364.83;103698;280;38367;-70
2023/04/10 02:39:14;;;;;;;31.70;19.00;;;;;;;4.80;87.76;101361.02;103710;280;39662;-72
2023/04/10 02:41:48;;;;;;;34.20;22.00;;;;;;;4.82;87.73;101360.34;103539;280;38515;-72
2023/04/10 02:44:22;;;;;;;33.10;20.10;;;;;;;4.84;87.71;101361.89;103686;279;39454;-72
2023/04/10 02:46:56;;;;;;;39.90;18.90;;;;;;;4.79;87.31;101362.23;103693;280;38499;-71
2023/04/10 02:49:30;;;;;;;22.80;16.80;;;;;;;4.75;87.26;101363.95;103639;280;39650;-70
2023/04/10 02:52:04;;;;;;;23.90;17.60;;;;;;;4.71;87.43;101359.80;103712;280;40014;-69
2023/04/10 02:54:38;;;;;;;24.90;17.20;;;;;;;4.72;87.42;101358.42;103688;280;38712;-69
2023/04/10 02:57:12;;;;;;;26.60;16.60;;;;;;;4.71;87.26;101356.17;103708;280;38827;-69
2023/04/10 02:59:46;;;;;;;25.40;17.30;;;;;;;4.69;87.21;101355.13;103683;280;39461;-72
2023/04/10 03:02:20;;;;;;;25.60;17.50;;;;;;;4.65;87.31;101355.81;103726;280;39302;-70
2023/04/10 03:04:54;;;;;;;27.20;17.40;;;;;;;4.62;87.22;101355.11;103669;280;38527;-69
2023/04/10 03:07:28;;;;;;;26.20;17.10;;;;;;;4.56;87.15;101357.87;103681;280;39706;-72
2023/04/10 03:10:02;;;;;;;24.90;17.70;;;;;;;4.51;87.21;101359.59;103659;280;38244;-74
2023/04/10 03:12:36;;;;;;;25.00;17.40;;;;;;;4.47;87.45;101361.30;103731;280;38268;-71
2023/04/10 03:15:13;;;;;;;21.20;16.50;;;;;;;4.46;87.50;101363.88;103658;280;38639;-70
2023/04/10 03:17:47;;;;;;;23.40;17.30;;;;;;;4.44;87.64;101362.16;103693;280;39807;-74
2023/04/10 03:20:21;;;;;;;20.20;15.90;;;;;;;4.44;87.48;101358.70;103713;280;39790;-70
2023/04/10 03:22:55;;;;;;;21.30;15.60;;;;;;;4.36;86.84;101356.94;103652;280;39282;-70
2023/04/10 03:25:30;;;;;;;21.40;15.30;;;;;;;4.23;86.53;101355.86;103686;280;38521;-69
2023/04/10 03:28:05;;;;;;;22.70;16.00;;;;;;;4.18;86.93;101358.27;103696;280;39422;-69
2023/04/10 03:30:39;;;;;;;23.30;17.50;;;;;;;4.16;87.31;101353.23;103699;280;38558;-69
2023/04/10 03:33:13;;;;;;;23.00;16.30;;;;;;;4.15;87.56;101350.30;103568;280;175690;-70
2023/04/10 03:35:50;;;;;;;24.90;17.40;;;;;;;4.14;87.45;101347.37;103553;280;38525;-69
2023/04/10 03:38:24;;;;;;;23.30;17.20;;;;;;;4.11;87.60;101352.02;103684;280;39647;-70
2023/04/10 03:40:58;;;;;;;28.10;18.20;;;;;;;4.12;87.74;101349.26;103706;280;39873;-72
2023/04/10 03:43:32;;;;;;;30.00;17.90;;;;;;;4.12;87.85;101348.91;103663;280;39916;-72
2023/04/10 03:46:07;;;;;;;29.60;18.10;;;;;;;4.11;87.91;101344.77;103624;280;175385;-72
2023/04/10 03:48:41;;;;;;;30.50;18.00;;;;;;;4.09;87.70;101349.59;103673;280;38272;-72
2023/04/10 03:51:18;;;;;;;32.60;19.00;;;;;;;4.07;87.68;101348.38;103570;282;39048;-74
2023/04/10 03:53:53;;;;;;;26.50;17.80;;;;;;;4.05;87.80;101348.02;103518;280;38252;-72
2023/04/10 03:56:27;;;;;;;28.60;19.20;;;;;;;4.03;87.78;101356.46;103722;280;38758;-69
2023/04/10 03:59:01;;;;;;;27.80;17.90;;;;;;;4.02;87.85;101354.04;103651;280;38888;-68
2023/04/10 04:01:35;;;;;;;31.70;20.30;;;;;;;4.03;87.92;101353.02;103735;280;38263;-72
2023/04/10 04:04:09;;;;;;;36.00;22.70;;;;;;;4.05;88.12;101356.66;103694;280;38533;-74
2023/04/10 04:06:43;;;;;;;34.40;22.10;;;;;;;4.08;88.14;101355.79;103714;280;38512;-72
2023/04/10 04:09:17;;;;;;;37.30;22.40;;;;;;;4.11;88.42;101359.27;103702;280;38538;-72
2023/04/10 04:11:51;;;;;;;41.60;22.70;;;;;;;4.12;88.21;101363.42;103702;280;38484;-71
2023/04/10 04:14:26;;;;;;;29.90;20.20;;;;;;;4.10;88.23;101362.38;103656;280;39386;-70
2023/04/10 04:17:01;;;;;;;30.60;19.80;;;;;;;4.12;88.26;101372.21;103694;279;38560;-74
2023/04/10 04:19:35;;;;;;;30.00;19.20;;;;;;;4.14;88.38;101374.14;103650;280;38469;-74
2023/04/10 04:22:09;;;;;;;30.00;20.60;;;;;;;4.20;88.34;101374.50;103691;280;39638;-68
2023/04/10 04:24:43;;;;;;;30.70;20.20;;;;;;;4.19;88.23;101379.85;103690;280;39931;-71
2023/04/10 04:27:18;;;;;;;27.40;17.60;;;;;;;4.22;88.56;101379.34;103684;280;38480;-70
2023/04/10 04:29:52;;;;;;;24.60;17.60;;;;;;;4.24;88.63;101381.95;103703;280;38255;-71
2023/04/10 04:32:26;;;;;;;23.10;16.90;;;;;;;4.29;88.88;101384.21;103712;280;38284;-70
2023/04/10 04:35:05;;;;;;;23.90;16.90;;;;;;;4.33;89.05;101386.45;103639;280;40275;-68
2023/04/10 04:37:39;;;;;;;23.50;16.80;;;;;;;4.40;89.26;101388.91;103728;280;39604;-72
2023/04/10 04:40:15;;;;;;;22.10;16.40;;;;;;;4.50;89.50;101392.92;103673;280;40016;-74
2023/04/10 04:42:49;;;;;;;24.10;17.20;;;;;;;4.61;89.87;101393.65;103736;280;39439;-71
2023/04/10 04:45:23;;;;;;;31.80;18.60;;;;;;;4.77;90.32;101394.38;103735;280;38485;-71
2023/04/10 04:47:58;;;;;;;31.50;19.10;;;;;;;4.91;90.57;101395.80;103662;279;38526;-72
2023/04/10 04:50:32;;;;;;;26.20;17.50;;;;;;;5.06;91.07;101393.56;103659;280;38383;-72
2023/04/10 04:53:06;;;;;;;28.50;18.30;;;;;;;5.18;90.60;101394.09;103679;280;38817;-74
2023/04/10 04:55:41;;;;;;;27.30;17.40;;;;;;;5.31;91.05;101399.63;103711;280;38285;-73
2023/04/10 04:58:15;;;;;;;23.70;15.50;;;;;;;5.52;92.27;101398.94;103696;280;38255;-72
2023/04/10 05:00:49;;;;;;;23.80;15.30;;;;;;;5.76;92.55;101394.23;103709;280;38249;-71
2023/04/10 05:03:23;;;;;;;29.30;15.50;;;;;;;5.93;91.93;101394.73;103665;280;38606;-69
2023/04/10 05:05:57;;;;;;;20.10;14.00;;;;;;;6.10;92.46;101399.72;103728;280;40339;-71
2023/04/10 05:08:31;;;;;;;15.70;12.50;;;;;;;6.35;93.51;101402.73;103712;279;38618;-69
2023/04/10 05:11:06;;;;;;;15.70;12.00;;;;;;;6.60;93.25;101401.42;103520;280;175465;-70
2023/04/10 05:13:40;;;;;;;18.90;11.70;;;;;;;6.82;93.07;101404.59;103709;280;38262;-69
2023/04/10 05:16:14;;;;;;;16.80;12.00;;;;;;;6.97;92.41;101405.00;103736;280;38539;-69
2023/04/10 05:18:49;;;;;;;28.70;13.60;;;;;;;7.17;92.92;101400.89;103681;280;39516;-69
2023/04/10 05:21:23;;;;;;;18.80;12.40;;;;;;;7.42;93.27;101403.45;103720;280;39572;-69
2023/04/10 05:23:57;;;;;;;17.90;12.50;;;;;;;7.64;92.25;101400.83;103667;280;38700;-70
2023/04/10 05:26:31;;;;;;;14.60;11.40;;;;;;;7.94;93.31;101402.09;103708;280;38484;-74
2023/04/10 05:29:05;;;;;;;15.20;13.00;;;;;;;8.33;94.63;101403.05;103691;280;38284;-74
2023/04/10 05:31:39;;;;;;;15.40;12.40;;;;;;;8.86;94.82;101404.63;103676;280;39026;-72
2023/04/10 05:34:13;;;;;;;16.30;13.10;;;;;;;9.40;94.79;101405.17;103697;280;39870;-74
2023/04/10 05:36:46;;;;;;;16.30;13.30;;;;;;;10.07;94.29;101401.89;103701;279;39026;-73
2023/04/10 05:39:20;;;;;;;14.90;13.30;;;;;;;10.87;94.43;101399.52;103658;280;38269;-73
2023/04/10 05:41:55;;;;;;;15.00;12.90;;;;;;;11.57;91.14;101396.95;103682;280;39484;-73
2023/04/10 05:44:29;;;;;;;14.30;12.30;;;;;;;12.05;87.79;101400.96;103667;280;38239;-74
2023/04/10 05:47:03;;;;;;;14.20;12.30;;;;;;;12.56;85.88;101398.09;103708;280;38246;-73
2023/04/10 05:49:37;;;;;;;13.80;12.30;;;;;;;12.81;81.82;101401.00;103686;280;38612;-70
2023/04/10 05:52:11;;;;;;;13.70;11.40;;;;;;;12.97;79.62;101403.33;103618;280;175178;-72
2023/04/10 05:54:45;;;;;;;12.40;10.70;;;;;;;12.93;78.21;101406.08;103715;280;38288;-71
2023/04/10 05:57:19;;;;;;;14.20;11.70;;;;;;;12.89;77.79;101402.32;103682;280;39387;-75
2023/04/10 05:59:53;;;;;;;12.50;10.50;;;;;;;13.12;77.34;101396.52;103716;280;39393;-74
2023/04/10 06:02:28;;;;;;;12.00;10.80;;;;;;;13.13;76.07;101398.96;103742;280;39403;-69
2023/04/10 06:05:02;;;;;;;11.30;10.30;;;;;;;12.95;75.35;101402.69;103726;280;38803;-72
2023/04/10 06:07:37;;;;;;;12.70;11.00;;;;;;;12.82;75.25;101406.77;103679;280;38394;-75
2023/04/10 06:10:13;;;;;;;13.50;10.50;;;;;;;12.88;75.56;101408.14;103532;282;38333;-74
2023/04/10 06:12:47;;;;;;;12.10;10.90;;;;;;;12.93;74.86;101408.35;103707;280;38400;-70
2023/04/10 06:15:21;;;;;;;11.30;10.10;;;;;;;12.83;74.51;101407.61;103718;280;38980;-72
2023/04/10 06:17:55;;;;;;;12.20;11.00;;;;;;;12.87;75.05;101408.89;103696;280;39622;-72
2023/04/10 06:20:29;;;;;;;12.00;10.70;;;;;;;12.94;74.68;101409.55;103711;280;39603;-72
2023/04/10 06:23:04;;;;;;;12.30;11.00;;;;;;;13.19;75.92;101411.05;103703;280;39209;-74
2023/04/10 06:25:38;;;;;;;13.20;11.80;;;;;;;14.03;78.44;101405.38;103695;280;38438;-73
2023/04/10 06:28:13;;;;;;;11.90;10.80;;;;;;;15.24;77.47;101404.46;103572;280;174921;-75
2023/04/10 06:30:46;;;;;;;13.40;11.20;;;;;;;16.24;71.45;101404.40;103666;280;39412;-74
2023/04/10 06:33:21;;;;;;;11.40;10.30;;;;;;;16.93;67.92;101406.14;103532;280;38293;-73
2023/04/10 06:35:56;;;;;;;10.70;9.60;;;;;;;17.66;66.18;101398.31;103677;280;38271;-71
2023/04/10 06:38:30;;;;;;;11.30;10.20;;;;;;;18.19;62.03;101398.56;103692;280;40034;-70
2023/04/10 06:41:04;;;;;;;10.90;9.80;;;;;;;18.71;61.40;101404.23;103716;280;38506;-75
2023/04/10 06:43:41;;;;;;;11.40;9.80;;;;;;;19.18;58.05;101402.11;103665;280;39163;-75
2023/04/10 06:46:16;;;;;;;11.10;10.10;;;;;;;19.52;57.16;101406.17;103688;280;38608;-72
2023/04/10 06:48:50;;;;;;;11.20;10.10;;;;;;;19.88;56.52;101405.80;103699;280;38496;-71
2023/04/10 06:51:24;;;;;;;12.60;10.50;;;;;;;19.99;53.96;101408.64;103736;280;38506;-73
2023/04/10 06:53:58;;;;;;;11.00;9.70;;;;;;;19.99;53.24;101411.31;103679;280;38216;-72
2023/04/10 06:56:33;;;;;;;11.00;10.00;;;;;;;20.02;53.79;101413.28;103715;280;39399;-76
2023/04/10 06:59:07;;;;;;;10.50;9.50;;;;;;;20.19;53.26;101411.00;103684;280;39809;-75
2023/04/10 07:01:41;;;;;;;11.40;10.20;;;;;;;20.30;52.61;101408.14;103683;280;38997;-76
2023/04/10 07:04:15;;;;;;;10.50;9.50;;;;;;;20.51;52.19;101405.48;103658;280;38387;-75
2023/04/10 07:06:49;;;;;;;9.90;9.00;;;;;;;20.77;51.16;101410.52;103691;280;38619;-71
2023/04/10 07:09:25;;;;;;;10.60;9.50;;;;;;;21.15;50.68;101409.30;103660;280;38633;-73
2023/04/10 07:11:59;;;;;;;9.70;8.70;;;;;;;21.54;48.90;101408.85;103699;280;38792;-73
2023/04/10 07:14:34;;;;;;;10.10;8.70;;;;;;;21.90;48.40;101405.16;103644;280;39409;-74
2023/04/10 07:17:08;;;;;;;9.40;8.50;;;;;;;22.30;46.76;101406.10;103745;280;39900;-72
2023/04/10 07:19:42;;;;;;;9.00;8.10;;;;;;;22.69;46.35;101406.86;103665;280;39714;-70
2023/04/10 07:22:17;;;;;;;11.20;8.10;;;;;;;23.00;45.39;101403.98;103705;280;38575;-74
2023/04/10 07:24:51;;;;;;;9.60;8.60;;;;;;;23.21;44.63;101408.09;103437;283;38289;-73
2023/04/10 07:27:25;;;;;;;9.20;8.40;;;;;;;23.40;44.30;101411.99;103699;280;39336;-74
2023/04/10 07:29:59;;;;;;;8.80;8.00;;;;;;;23.57;43.50;101411.43;103651;280;38807;-74
2023/04/10 07:32:33;;;;;;;9.70;8.70;;;;;;;23.80;42.76;101407.30;103700;280;38225;-74
2023/04/10 07:35:11;;;;;;;10.00;8.60;;;;;;;23.96;42.88;101412.39;103650;280;39869;-74
2023/04/10 07:37:50;;;;;;;8.40;7.50;;;;;;;24.14;43.25;101409.34;103532;282;38560;-74
2023/04/10 07:40:24;;;;;;;9.90;8.00;;;;;;;24.40;42.33;101410.30;103705;280;38548;-75
2023/04/10 07:42:58;;;;;;;8.90;8.10;;;;;;;24.63;42.27;101414.36;103554;280;173971;-73
2023/04/10 07:45:32;;;;;;;9.40;8.00;;;;;;;24.79;40.92;101417.77;103714;280;39104;-73
2023/04/10 07:48:08;;;;;;;10.30;8.20;;;;;;;24.83;40.63;101420.09;103676;280;40085;-73
2023/04/10 07:50:42;;;;;;;8.30;7.50;;;;;;;24.92;40.51;101419.52;103564;282;39499;-74
2023/04/10 07:53:16;;;;;;;7.20;6.60;;;;;;;25.21;40.10;101421.45;103667;280;40123;-73
2023/04/10 07:55:52;;;;;;;7.50;6.80;;;;;;;25.37;39.40;101415.98;103514;280;38747;-74
2023/04/10 07:58:26;;;;;;;7.20;6.60;;;;;;;25.51;38.82;101419.09;103599;282;38382;-74
2023/04/10 08:01:02;;;;;;;9.70;6.20;;;;;;;25.68;39.26;101415.96;103703;280;38277;-75
2023/04/10 08:03:48;;;;;;;6.80;6.20;;;;;;;26.06;38.33;101407.80;103564;280;40386;-75
2023/04/10 08:06:22;;;;;;;6.40;5.70;;;;;;;26.25;37.71;101412.73;103705;280;38831;-74
2023/04/10 08:08:56;;;;;;;6.50;5.90;;;;;;;26.40;37.25;101411.80;103698;280;38254;-75
2023/04/10 08:11:33;;;;;;;6.10;5.60;;;;;;;26.59;37.02;101411.19;103709;280;38722;-75
2023/04/10 08:14:07;;;;;;;6.30;5.70;;;;;;;26.75;36.10;101406.52;103654;280;39452;-75
2023/04/10 08:16:43;;;;;;;6.90;5.70;;;;;;;26.76;36.12;101405.05;103705;280;39477;-74
2023/04/10 08:19:19;;;;;;;8.30;6.10;;;;;;;26.83;36.11;101401.87;103731;280;38780;-74
2023/04/10 08:21:54;;;;;;;5.90;5.40;;;;;;;26.93;36.16;101398.59;103741;280;39565;-75
2023/04/10 08:24:28;;;;;;;6.10;5.60;;;;;;;26.75;35.94;101397.89;103701;280;39301;-76
2023/04/10 08:27:02;;;;;;;5.70;5.10;;;;;;;26.54;35.25;101400.14;103697;280;38932;-74
2023/04/10 08:29:39;;;;;;;6.10;5.50;;;;;;;26.61;35.97;101399.25;103691;280;38253;-74
2023/04/10 08:32:13;;;;;;;6.30;5.40;;;;;;;26.98;35.42;101398.19;103704;280;38283;-77
2023/04/10 08:34:47;;;;;;;6.30;5.40;;;;;;;27.36;35.49;101392.34;103667;280;38632;-77
2023/04/10 08:37:22;;;;;;;5.40;4.90;;;;;;;27.64;34.00;101393.89;103534;282;38257;-76
2023/04/10 08:39:57;;;;;;;5.20;4.70;;;;;;;27.75;33.95;101384.24;103651;280;38249;-76
2023/04/10 08:42:31;;;;;;;5.30;4.80;;;;;;;27.66;33.84;101392.78;103727;280;38590;-76
2023/04/10 08:45:07;;;;;;;5.90;4.90;;;;;;;27.79;34.19;101386.60;103669;280;38233;-76
2023/04/10 08:47:42;;;;;;;5.40;4.90;;;;;;;27.89;33.50;101384.72;103752;280;39648;-76
2023/04/10 08:50:21;;;;;;;5.60;5.00;;;;;;;28.01;34.01;101379.81;103688;280;39640;-76
2023/04/10 08:52:55;;;;;;;6.70;5.10;;;;;;;28.26;33.55;101381.52;103664;280;38285;-77
2023/04/10 08:55:30;;;;;;;6.80;5.20;;;;;;;28.49;32.75;101380.76;103590;280;174137;-75
2023/04/10 08:58:04;;;;;;;5.80;5.20;;;;;;;28.43;32.42;101380.02;103745;280;38737;-74
2023/04/10 09:00:38;;;;;;;5.40;4.90;;;;;;;28.71;32.03;101380.17;103735;280;39405;-75
2023/04/10 09:03:14;;;;;;;5.10;4.70;;;;;;;28.76;32.11;101374.63;103694;280;38547;-75
2023/04/10 09:05:48;;;;;;;6.00;4.70;;;;;;;28.36;32.35;101374.06;103719;280;39681;-75
2023/04/10 09:08:23;;;;;;;5.80;5.20;;;;;;;28.31;32.04;101372.05;103713;280;38785;-75
2023/04/10 09:10:57;;;;;;;5.50;5.00;;;;;;;28.23;32.27;101370.30;103660;280;38235;-76
2023/04/10 09:13:41;;;;;;;5.40;4.50;;;;;;;28.23;32.08;101367.86;103670;280;38435;-76
2023/04/10 09:16:17;;;;;;;4.80;4.30;;;;;;;27.65;32.02;101367.66;103712;280;38265;-74
2023/04/10 09:18:53;;;;;;;7.40;4.80;;;;;;;27.54;33.30;101364.14;103699;280;39632;-74
2023/04/10 09:21:27;;;;;;;5.20;4.30;;;;;;;27.44;32.07;101361.55;99435;269;3013434;-75
2023/04/10 09:24:04;;;;;;;4.80;4.30;;;;;;;26.85;33.14;101361.75;103663;280;25939;-74
2023/04/10 09:26:38;;;;;;;8.20;4.90;;;;;;;27.03;33.51;101359.23;103719;269;39436;-75
2023/04/10 09:29:12;;;;;;;4.40;4.00;;;;;;;26.92;32.93;101358.94;103640;269;38278;-76
2023/04/10 09:31:46;;;;;;;5.40;4.10;;;;;;;26.30;33.26;101358.84;103666;280;38775;-73
2023/04/10 09:34:23;;;;;;;3.80;3.30;;;;;;;26.07;33.53;101356.94;103259;268;645852;-73
2023/04/10 09:37:00;;;;;;;6.20;3.50;;;;;;;26.15;33.87;101353.16;103723;280;40170;-73
2023/04/10 09:39:41;;;;;;;5.60;2.70;;;;;;;26.16;33.28;101349.89;103682;280;38268;-73
2023/04/10 09:42:16;;;;;;;4.90;2.80;;;;;;;26.10;33.96;101349.80;103691;279;39727;-74
2023/04/10 09:44:51;;;;;;;3.80;3.20;;;;;;;26.27;33.48;101348.34;103521;282;38230;-74
2023/04/10 09:47:25;;;;;;;4.00;3.00;;;;;;;26.11;33.46;101343.63;103693;280;39393;-74
2023/04/10 09:50:00;;;;;;;3.30;2.80;;;;;;;25.79;33.79;101341.44;103679;280;38443;-74
2023/04/10 09:52:37;;;;;;;5.20;3.10;;;;;;;25.44;33.70;101338.55;103733;280;38239;-73
2023/04/10 09:55:12;;;;;;;4.60;2.70;;;;;;;25.07;34.10;101342.45;103688;280;39897;-73
2023/04/10 09:57:47;;;;;;;6.40;3.40;;;;;;;24.74;34.20;101334.41;103676;280;39485;-74
2023/04/10 10:00:21;;;;;;;6.10;3.40;;;;;;;24.54;34.79;101338.09;103564;280;38951;-73
2023/04/10 10:02:55;;;;;;;5.90;3.20;;;;;;;24.42;35.38;101333.13;103713;280;38527;-74
2023/04/10 10:05:30;;;;;;;3.80;3.00;;;;;;;24.24;35.90;101330.24;103668;280;38248;-73
2023/04/10 10:08:04;;;;;;;5.00;3.10;;;;;;;23.91;36.14;101325.91;103578;280;188190;-73
2023/04/10 10:10:41;;;;;;;7.60;3.20;;;;;;;23.73;36.31;101327.52;103687;280;38499;-74
2023/04/10 10:13:18;;;;;;;4.20;3.10;;;;;;;23.58;35.91;101323.55;103681;280;37964;-75
2023/04/10 10:15:58;;;;;;;5.50;3.70;;;;;;;23.37;35.93;101319.29;103681;280;39456;-74
2023/04/10 10:18:39;;;;;;;5.40;2.70;;;;;;;23.18;36.01;101313.92;103707;280;39119;-74
2023/04/10 10:21:14;;;;;;;3.00;2.50;;;;;;;23.14;36.83;101311.79;103741;279;38269;-73
2023/04/10 10:23:52;;;;;;;4.90;2.80;;;;;;;23.10;37.33;101310.80;103710;280;38407;-72
2023/04/10 10:26:27;;;;;;;4.00;2.80;;;;;;;22.93;37.57;101307.83;103696;280;38660;-75
2023/04/10 10:29:01;;;;;;;4.80;3.20;;;;;;;22.61;37.47;101306.98;103672;280;38490;-75
2023/04/10 10:31:36;;;;;;;7.10;4.10;;;;;;;22.40;37.72;101302.77;103731;280;38255;-73
2023/04/10 10:34:10;;;;;;;5.00;3.00;;;;;;;22.38;38.47;101295.15;103662;280;39811;-73
2023/04/10 10:36:44;;;;;;;5.10;2.90;;;;;;;22.13;38.37;101301.41;103719;280;39466;-73
2023/04/10 10:39:29;;;;;;;4.70;2.50;;;;;;;21.96;37.80;101299.59;103681;280;38614;-73
2023/04/10 10:42:09;;;;;;;5.60;2.80;;;;;;;21.68;37.42;101294.63;103724;280;38329;-72
2023/04/10 10:44:47;;;;;;;5.00;3.30;;;;;;;21.38;37.95;101295.62;103696;280;39978;-72
2023/04/10 10:47:23;;;;;;;3.70;2.40;;;;;;;21.32;39.68;101288.09;103755;280;38412;-72
2023/04/10 10:49:59;;;;;;;4.50;2.90;;;;;;;21.40;40.01;101288.21;103707;280;38478;-74
2023/04/10 10:52:48;;;;;;;3.30;2.60;;;;;;;21.33;38.47;101288.52;103565;280;38938;-73
2023/04/10 10:55:35;;;;;;;3.90;2.80;;;;;;;21.23;39.35;101292.20;103661;280;38227;-73
2023/04/10 10:58:11;;;;;;;3.50;2.60;;;;;;;21.20;39.33;101285.96;103705;280;38550;-73
2023/04/10 11:01:10;;;;;;;3.40;2.40;;;;;;;21.14;39.92;101284.48;103727;269;39587;-73
2023/04/10 11:03:44;;;;;;;4.70;2.90;;;;;;;21.20;39.79;101284.60;103654;280;39218;-75
2023/04/10 11:06:20;;;;;;;3.30;2.50;;;;;;;21.05;39.42;101281.73;103729;280;39620;-73
2023/04/10 11:08:54;;;;;;;5.00;2.80;;;;;;;20.83;39.65;101285.49;103663;280;38625;-73
2023/04/10 11:11:29;;;;;;;7.30;2.20;;;;;;;20.55;39.09;101286.61;103686;280;40293;-73
2023/04/10 11:14:17;;;;;;;4.60;2.90;;;;;;;20.38;39.48;101280.05;103642;280;39702;-75
2023/04/10 11:16:52;;;;;;;4.50;2.30;;;;;;;20.47;39.82;101278.45;103703;280;38874;-71
2023/04/10 11:19:26;;;;;;;4.30;2.60;;;;;;;20.59;39.52;101274.63;103714;280;38339;-71
2023/04/10 11:22:14;;;;;;;3.20;2.40;;;;;;;20.59;39.29;101265.05;103728;280;38279;-75
2023/04/10 11:25:09;;;;;;;3.20;2.50;;;;;;;20.49;39.72;101266.77;103694;280;39394;-75
2023/04/10 11:27:51;;;;;;;3.10;2.70;;;;;;;20.43;40.03;101255.70;103688;279;38402;-75
2023/04/10 11:30:37;;;;;;;5.80;3.50;;;;;;;20.43;40.76;101254.57;103709;280;39650;-74
2023/04/10 11:33:11;;;;;;;3.80;3.10;;;;;;;20.32;40.82;101252.61;103697;280;38971;-73
2023/04/10 11:35:45;;;;;;;4.00;2.80;;;;;;;20.11;41.15;101247.05;103723;280;39795;-74
2023/04/10 11:38:20;;;;;;;4.70;2.50;;;;;;;20.04;41.43;101252.48;103681;280;38479;-73
2023/04/10 11:41:00;;;;;;;3.70;2.80;;;;;;;20.00;41.54;101251.99;103567;280;38352;-72
2023/04/10 11:43:34;;;;;;;3.90;2.70;;;;;;;19.89;41.75;101246.73;103694;280;39665;-72
2023/04/10 11:46:09;;;;;;;5.00;3.60;;;;;;;19.77;42.28;101246.43;103102;280;900315;-74
2023/04/10 11:48:43;;;;;;;4.10;3.10;;;;;;;19.75;43.04;101241.55;103727;280;38247;-74
2023/04/10 11:51:17;;;;;;;3.30;3.00;;;;;;;19.85;42.79;101237.77;103706;280;39426;-72
2023/04/10 11:54:03;;;;;;;3.80;3.00;;;;;;;19.87;41.72;101233.04;103695;280;39673;-73
2023/04/10 11:56:37;;;;;;;3.30;3.00;;;;;;;19.84;41.84;101226.12;103669;280;39439;-73